Time;durP1;ratioP1;P1;durP2;ratioP2;P2;SDS_P1;SDS_P2;PMS_P1;PMS_P2;Temp;Humidity;BMP_temperature;BMP_pressure;BME280_temperature;BME280_humidity;BME280_pressure;Samples;Min_cycle;Max_cycle;Signal;HPM_P1;HPM_P2
2022/04/06 00:01:05;;;;;;;10.45;7.13;;;11.50;96.80;;;;;;5072937;28;20420;-77
2022/04/06 00:03:32;;;;;;;12.20;8.52;;;11.40;96.90;;;;;;5066783;28;20105;-77
2022/04/06 00:06:03;;;;;;;10.20;7.63;;;11.40;96.90;;;;;;5071195;28;20109;-77
2022/04/06 00:08:30;;;;;;;16.00;7.32;;;11.40;96.90;;;;;;5050274;28;20040;-77
2022/04/06 00:10:59;;;;;;;9.13;6.55;;;11.40;97.20;;;;;;5059309;28;20051;-77
2022/04/06 00:13:26;;;;;;;13.68;6.32;;;11.40;96.90;;;;;;5057786;28;20138;-77
2022/04/06 00:15:54;;;;;;;12.00;7.63;;;11.40;96.90;;;;;;5050402;28;20138;-77
2022/04/06 00:18:22;;;;;;;10.30;6.13;;;11.40;97.10;;;;;;5083612;28;20047;-76
2022/04/06 00:20:50;;;;;;;10.43;6.20;;;11.40;97.00;;;;;;5095705;28;20048;-76
2022/04/06 00:23:17;;;;;;;11.50;7.35;;;11.40;96.90;;;;;;5084194;28;20154;-77
2022/04/06 00:25:45;;;;;;;10.07;7.60;;;11.40;96.90;;;;;;5071135;28;20040;-77
2022/04/06 00:28:13;;;;;;;10.40;6.28;;;11.40;96.90;;;;;;5094581;28;20036;-77
2022/04/06 00:30:40;;;;;;;10.75;6.80;;;11.30;96.90;;;;;;5079550;28;20499;-76
2022/04/06 00:33:08;;;;;;;7.53;5.78;;;11.30;97.00;;;;;;5070961;28;20115;-77
2022/04/06 00:35:36;;;;;;;9.38;6.20;;;11.30;97.10;;;;;;5069216;28;20500;-76
2022/04/06 00:38:05;;;;;;;8.35;5.28;;;11.30;97.10;;;;;;5044405;28;20059;-77
2022/04/06 00:40:36;;;;;;;7.90;5.35;;;11.30;97.30;;;;;;5053778;28;20044;-77
2022/04/06 00:43:10;;;;;;;8.68;5.43;;;11.30;97.30;;;;;;5051529;28;20089;-77
2022/04/06 00:45:39;;;;;;;9.73;5.80;;;11.30;97.30;;;;;;5062017;28;20552;-77
2022/04/06 00:48:08;;;;;;;9.48;4.97;;;11.30;97.30;;;;;;5045877;28;20048;-77
2022/04/06 00:50:38;;;;;;;10.80;5.50;;;11.30;97.40;;;;;;5038221;28;20461;-77
2022/04/06 00:53:06;;;;;;;6.40;4.35;;;11.40;97.40;;;;;;5074499;28;20048;-77
2022/04/06 00:55:37;;;;;;;8.90;5.05;;;11.40;97.50;;;;;;5039109;28;20135;-76
2022/04/06 00:58:06;;;;;;;5.28;3.72;;;11.40;97.60;;;;;;5067861;28;20036;-76
2022/04/06 01:00:33;;;;;;;5.20;4.18;;;11.40;97.60;;;;;;5064181;28;20052;-76
2022/04/06 01:03:01;;;;;;;7.45;4.13;;;11.40;97.60;;;;;;5052241;28;20040;-77
2022/04/06 01:05:29;;;;;;;6.05;4.10;;;11.40;97.60;;;;;;5067529;28;20052;-76
2022/04/06 01:08:01;;;;;;;4.80;3.35;;;11.40;97.60;;;;;;5084468;28;20093;-75
2022/04/06 01:10:29;;;;;;;5.45;3.90;;;11.40;97.70;;;;;;5066809;28;20036;-75
2022/04/06 01:12:57;;;;;;;7.05;4.10;;;11.30;97.70;;;;;;5064864;28;20047;-76
2022/04/06 01:15:25;;;;;;;6.38;3.88;;;11.40;97.80;;;;;;5059168;28;20098;-76
2022/04/06 01:17:53;;;;;;;7.45;3.90;;;11.40;97.90;;;;;;5086955;28;20048;-77
2022/04/06 01:20:24;;;;;;;4.97;3.75;;;11.40;98.00;;;;;;5059693;28;20044;-76
2022/04/06 01:22:52;;;;;;;4.72;3.00;;;11.50;98.10;;;;;;5085783;28;20225;-76
2022/04/06 01:25:19;;;;;;;6.45;3.97;;;11.50;98.20;;;;;;5056374;28;20048;-76
2022/04/06 01:27:47;;;;;;;10.43;4.80;;;11.60;98.20;;;;;;5071723;28;20059;-77
2022/04/06 01:30:14;;;;;;;7.38;4.47;;;11.60;98.30;;;;;;5048113;28;20047;-77
2022/04/06 01:32:42;;;;;;;6.05;3.50;;;11.60;98.30;;;;;;5083943;28;20044;-76
2022/04/06 01:35:09;;;;;;;4.63;3.05;;;11.70;98.40;;;;;;5083085;28;20040;-77
2022/04/06 01:37:37;;;;;;;6.22;3.17;;;11.80;98.40;;;;;;5066167;28;20416;-79
2022/04/06 01:40:05;;;;;;;6.68;3.95;;;11.80;98.40;;;;;;5089999;28;20051;-76
2022/04/06 01:42:34;;;;;;;4.18;2.60;;;11.90;98.40;;;;;;5065463;28;20506;-78
2022/04/06 01:45:08;;;;;;;3.95;2.90;;;11.90;98.30;;;;;;5053018;28;20184;-76
2022/04/06 01:47:36;;;;;;;4.38;2.55;;;11.90;98.20;;;;;;5077117;28;20035;-77
2022/04/06 01:52:50;;;;;;;5.25;3.20;;;12.00;98.20;;;;;;5083005;28;20043;-77
2022/04/06 01:55:17;;;;;;;5.55;2.83;;;12.00;98.30;;;;;;5052627;28;20044;-77
2022/04/06 01:57:45;;;;;;;6.82;3.55;;;12.00;98.20;;;;;;5092057;28;20044;-76
2022/04/06 02:00:18;;;;;;;5.18;3.25;;;12.00;98.30;;;;;;5081984;28;20060;-77
2022/04/06 02:02:54;;;;;;;5.65;2.78;;;12.00;98.30;;;;;;5080906;28;20044;-76
2022/04/06 02:05:23;;;;;;;5.47;3.15;;;12.00;98.30;;;;;;5076377;28;20500;-77
2022/04/06 02:07:51;;;;;;;5.80;3.33;;;12.00;98.40;;;;;;5062550;28;20498;-77
2022/04/06 02:10:19;;;;;;;6.65;3.08;;;12.10;98.40;;;;;;5083705;28;20044;-77
2022/04/06 02:12:47;;;;;;;5.43;3.78;;;12.00;98.30;;;;;;5084271;28;20050;-76
2022/04/06 02:15:15;;;;;;;7.30;2.90;;;12.10;98.40;;;;;;5077753;28;20054;-76
2022/04/06 02:17:43;;;;;;;4.85;2.88;;;12.10;98.40;;;;;;5059302;28;20402;-77
2022/04/06 02:20:11;;;;;;;5.65;2.55;;;12.10;98.40;;;;;;5041812;28;20044;-76
2022/04/06 02:22:43;;;;;;;4.28;2.53;;;12.00;98.40;;;;;;5075071;28;20059;-76
2022/04/06 02:25:13;;;;;;;3.53;2.45;;;12.10;98.50;;;;;;5074821;28;20151;-76
2022/04/06 02:27:51;;;;;;;6.13;3.00;;;12.10;98.50;;;;;;5074222;28;20051;-76
2022/04/06 02:30:20;;;;;;;4.82;3.60;;;12.10;98.50;;;;;;5056201;28;20044;-76
2022/04/06 02:32:48;;;;;;;5.55;3.15;;;12.10;98.40;;;;;;5058039;28;20051;-76
2022/04/06 02:35:16;;;;;;;4.80;2.45;;;12.10;98.40;;;;;;5041233;28;20090;-76
2022/04/06 02:37:44;;;;;;;3.78;3.03;;;12.10;98.30;;;;;;5040769;28;20489;-78
2022/04/06 02:40:14;;;;;;;4.03;2.70;;;12.10;98.40;;;;;;5057599;28;20036;-80
2022/04/06 02:42:42;;;;;;;6.75;2.88;;;12.10;98.40;;;;;;5041486;28;20375;-78
2022/04/06 02:45:10;;;;;;;5.25;2.95;;;12.10;98.40;;;;;;5057734;28;20059;-76
2022/04/06 02:47:40;;;;;;;6.88;3.38;;;12.10;98.40;;;;;;5058186;28;20397;-76
2022/04/06 02:50:07;;;;;;;12.77;4.57;;;12.10;98.40;;;;;;5092274;28;20039;-77
2022/04/06 02:52:35;;;;;;;6.97;3.90;;;12.10;98.50;;;;;;5073845;28;20055;-76
2022/04/06 02:55:03;;;;;;;5.20;3.25;;;12.10;98.50;;;;;;5074043;28;20551;-77
2022/04/06 02:57:32;;;;;;;3.53;3.00;;;12.10;98.50;;;;;;5057199;28;20047;-76
2022/04/06 02:59:59;;;;;;;6.28;2.92;;;12.10;98.40;;;;;;5073470;28;20086;-76
2022/04/06 03:02:27;;;;;;;7.43;3.35;;;12.10;98.60;;;;;;5042928;28;20580;-78
2022/04/06 03:04:56;;;;;;;4.43;3.17;;;12.10;98.50;;;;;;5037550;28;20121;-77
2022/04/06 03:07:23;;;;;;;5.30;2.88;;;12.10;98.50;;;;;;5053898;28;20115;-76
2022/04/06 03:09:51;;;;;;;5.53;3.42;;;12.10;98.50;;;;;;5037165;28;20417;-77
2022/04/06 03:12:21;;;;;;;4.22;2.90;;;12.10;98.50;;;;;;5052994;28;20052;-77
2022/04/06 03:14:49;;;;;;;5.55;2.80;;;12.10;98.50;;;;;;5071152;28;20051;-79
2022/04/06 03:17:16;;;;;;;6.03;2.85;;;12.20;98.60;;;;;;5082986;28;20067;-77
2022/04/06 03:19:44;;;;;;;5.90;2.90;;;12.20;98.50;;;;;;5091257;28;20051;-76
2022/04/06 03:22:17;;;;;;;4.45;2.83;;;12.20;98.60;;;;;;5070447;28;20493;-76
2022/04/06 03:24:45;;;;;;;4.95;3.30;;;12.20;98.50;;;;;;5056442;28;20075;-76
2022/04/06 03:27:13;;;;;;;5.03;3.30;;;12.20;98.50;;;;;;5091271;28;20047;-76
2022/04/06 03:29:41;;;;;;;4.53;3.15;;;12.20;98.50;;;;;;5056546;28;20051;-76
2022/04/06 03:32:09;;;;;;;9.00;3.05;;;12.20;98.50;;;;;;5073074;28;20052;-78
2022/04/06 03:34:38;;;;;;;4.25;2.80;;;12.20;98.50;;;;;;5056655;28;20051;-76
2022/04/06 03:37:06;;;;;;;4.55;2.85;;;12.20;98.50;;;;;;5056787;28;20056;-77
2022/04/06 03:39:34;;;;;;;5.05;3.63;;;12.10;98.70;;;;;;5090749;28;20040;-77
2022/04/06 03:42:01;;;;;;;4.75;2.95;;;12.10;98.80;;;;;;5056221;28;20055;-76
2022/04/06 03:44:29;;;;;;;3.92;2.50;;;12.10;99.00;;;;;;5039493;28;20087;-77
2022/04/06 03:46:56;;;;;;;3.30;2.40;;;12.00;99.00;;;;;;5039879;28;20062;-76
2022/04/06 03:49:24;;;;;;;3.72;2.08;;;12.00;99.00;;;;;;5072879;28;20043;-77
2022/04/06 03:51:54;;;;;;;3.50;1.88;;;12.00;99.00;;;;;;5072491;28;20500;-77
2022/04/06 03:54:21;;;;;;;3.80;2.25;;;12.00;99.10;;;;;;5055978;28;20044;-77
2022/04/06 03:56:49;;;;;;;4.22;2.65;;;12.00;99.10;;;;;;5055603;28;20490;-77
2022/04/06 03:59:16;;;;;;;5.50;2.25;;;12.00;99.30;;;;;;5072381;28;20062;-77
2022/04/06 04:01:44;;;;;;;4.03;2.42;;;12.00;99.10;;;;;;5055924;28;20052;-76
2022/04/06 04:04:11;;;;;;;3.88;2.25;;;11.90;99.10;;;;;;5035080;28;20048;-77
2022/04/06 04:06:39;;;;;;;4.03;2.55;;;11.90;99.00;;;;;;5052140;28;20102;-77
2022/04/06 04:09:07;;;;;;;4.97;2.95;;;11.90;99.00;;;;;;5035098;28;20045;-77
2022/04/06 04:11:34;;;;;;;3.78;2.40;;;11.90;99.10;;;;;;5019314;28;20402;-77
2022/04/06 04:14:02;;;;;;;3.97;2.53;;;11.90;99.10;;;;;;5051778;28;20044;-77
2022/04/06 04:16:30;;;;;;;4.97;2.50;;;11.80;99.10;;;;;;5052396;28;20052;-77
2022/04/06 04:18:57;;;;;;;4.90;2.55;;;11.80;99.10;;;;;;5019156;28;20131;-76
2022/04/06 04:21:34;;;;;;;5.70;3.65;;;11.80;99.10;;;;;;5036096;28;20048;-77
2022/04/06 04:24:04;;;;;;;6.90;3.22;;;11.80;99.10;;;;;;5035497;28;20048;-76
2022/04/06 04:26:34;;;;;;;6.30;3.50;;;11.80;99.00;;;;;;5035544;28;20057;-77
2022/04/06 04:29:05;;;;;;;5.47;3.28;;;11.70;99.00;;;;;;5052726;28;20171;-77
2022/04/06 04:31:32;;;;;;;4.07;3.47;;;11.80;99.10;;;;;;5036233;28;20037;-77
2022/04/06 04:34:01;;;;;;;4.03;2.92;;;11.70;98.90;;;;;;5070378;28;20506;-77
2022/04/06 04:36:29;;;;;;;5.00;2.97;;;11.70;99.00;;;;;;5035787;28;20401;-76
2022/04/06 04:38:57;;;;;;;5.38;2.97;;;11.70;99.00;;;;;;5018996;28;20056;-76
2022/04/06 04:41:25;;;;;;;4.60;3.33;;;11.70;99.10;;;;;;5052545;28;20041;-77
2022/04/06 04:43:53;;;;;;;4.68;2.65;;;11.80;99.10;;;;;;5051884;28;20048;-77
2022/04/06 04:46:21;;;;;;;4.72;2.95;;;11.80;99.10;;;;;;5019033;28;20521;-76
2022/04/06 04:48:49;;;;;;;5.03;2.58;;;11.80;99.00;;;;;;5052242;28;20037;-76
2022/04/06 04:51:16;;;;;;;4.03;2.85;;;11.80;98.90;;;;;;5051768;28;20040;-77
2022/04/06 04:53:44;;;;;;;5.15;3.33;;;11.90;99.10;;;;;;5061005;28;20062;-77
2022/04/06 04:56:11;;;;;;;5.43;3.85;;;11.80;98.90;;;;;;5072478;28;20044;-77
2022/04/06 04:58:39;;;;;;;4.68;2.70;;;11.90;98.90;;;;;;5052340;28;20122;-77
2022/04/06 05:01:07;;;;;;;6.50;2.80;;;11.90;98.80;;;;;;5052340;28;20436;-77
2022/04/06 05:03:35;;;;;;;5.07;3.17;;;12.00;98.90;;;;;;5052457;28;20052;-78
2022/04/06 05:06:02;;;;;;;5.10;3.08;;;12.00;98.90;;;;;;5070038;28;20056;-76
2022/04/06 05:08:30;;;;;;;4.55;2.85;;;12.10;98.90;;;;;;5051476;28;20511;-77
2022/04/06 05:10:57;;;;;;;5.50;3.53;;;12.10;99.00;;;;;;5068722;28;20048;-77
2022/04/06 05:13:25;;;;;;;4.82;2.97;;;12.20;99.20;;;;;;5069955;28;20383;-77
2022/04/06 05:15:53;;;;;;;6.78;2.58;;;12.30;99.20;;;;;;5069704;28;20069;-76
2022/04/06 05:18:20;;;;;;;6.90;2.35;;;12.40;99.10;;;;;;5068241;28;20041;-76
2022/04/06 05:20:48;;;;;;;4.85;2.45;;;12.50;99.00;;;;;;5052061;28;20056;-77
2022/04/06 05:23:16;;;;;;;5.28;2.92;;;12.70;98.80;;;;;;5068698;28;20537;-77
2022/04/06 05:25:43;;;;;;;5.60;2.80;;;12.80;98.70;;;;;;5051692;28;20052;-77
2022/04/06 05:28:11;;;;;;;3.83;2.55;;;13.00;98.60;;;;;;5051525;28;20048;-76
2022/04/06 05:30:41;;;;;;;6.50;2.70;;;13.20;98.50;;;;;;5069648;28;20047;-76
2022/04/06 05:33:09;;;;;;;4.93;2.83;;;13.30;98.20;;;;;;5069809;28;20095;-76
2022/04/06 05:35:37;;;;;;;5.30;2.88;;;13.50;98.20;;;;;;5035426;28;20052;-76
2022/04/06 05:38:07;;;;;;;4.30;2.97;;;13.70;98.10;;;;;;5071938;28;20052;-78
2022/04/06 05:40:35;;;;;;;5.65;2.50;;;13.80;97.90;;;;;;5052565;28;20106;-77
2022/04/06 05:43:03;;;;;;;5.00;2.38;;;14.00;98.00;;;;;;5035469;28;20059;-76
2022/04/06 05:45:31;;;;;;;4.15;2.35;;;14.10;98.00;;;;;;5035627;28;20080;-74
2022/04/06 05:48:02;;;;;;;6.75;3.00;;;14.20;98.00;;;;;;5051824;28;20033;-77
2022/04/06 05:50:29;;;;;;;4.60;2.30;;;14.40;97.90;;;;;;5034031;28;20041;-78
2022/04/06 05:52:57;;;;;;;5.78;2.42;;;14.50;97.90;;;;;;5046077;28;20044;-78
2022/04/06 05:55:25;;;;;;;3.40;2.55;;;14.70;97.90;;;;;;5068806;28;20049;-78
2022/04/06 05:57:53;;;;;;;3.65;2.05;;;14.80;97.80;;;;;;5053765;28;20040;-77
2022/04/06 06:00:21;;;;;;;4.47;2.45;;;15.00;97.60;;;;;;5035681;28;20053;-76
2022/04/06 06:02:49;;;;;;;6.80;2.45;;;15.10;97.50;;;;;;5054770;28;20064;-79
2022/04/06 06:05:17;;;;;;;3.92;2.22;;;15.30;97.40;;;;;;5078632;28;20068;-77
2022/04/06 06:07:45;;;;;;;4.32;2.30;;;15.40;97.20;;;;;;5082661;28;20048;-74
2022/04/06 06:10:12;;;;;;;3.53;2.53;;;15.60;97.00;;;;;;5065157;28;20485;-78
2022/04/06 06:12:40;;;;;;;5.15;2.55;;;15.70;96.70;;;;;;5045127;28;20044;-77
2022/04/06 06:15:08;;;;;;;4.47;2.30;;;15.90;96.60;;;;;;5073678;28;20495;-77
2022/04/06 06:17:40;;;;;;;6.47;3.28;;;16.10;96.40;;;;;;4955632;28;20113;-75
2022/04/06 06:20:10;;;;;;;8.07;3.67;;;16.20;96.10;;;;;;5055207;28;20056;-76
2022/04/06 06:22:38;;;;;;;4.75;3.10;;;16.40;96.10;;;;;;5054340;28;20045;-76
2022/04/06 06:25:06;;;;;;;2.92;2.20;;;16.50;96.00;;;;;;5038412;28;20521;-77
2022/04/06 06:27:39;;;;;;;3.00;2.03;;;16.60;95.90;;;;;;5062209;28;20045;-76
2022/04/06 06:30:10;;;;;;;4.72;2.30;;;16.70;95.70;;;;;;5034587;28;20056;-76
2022/04/06 06:32:38;;;;;;;5.40;2.35;;;16.80;95.50;;;;;;5034239;28;20060;-75
2022/04/06 06:35:08;;;;;;;5.18;2.55;;;16.90;95.20;;;;;;5051213;28;20041;-75
2022/04/06 06:37:36;;;;;;;4.85;2.30;;;17.00;95.10;;;;;;5034153;28;20048;-75
2022/04/06 06:40:04;;;;;;;4.93;2.20;;;17.10;95.10;;;;;;5018254;28;20057;-76
2022/04/06 06:42:32;;;;;;;2.40;1.73;;;17.10;94.80;;;;;;5050681;28;20041;-76
2022/04/06 06:45:01;;;;;;;3.58;1.80;;;17.20;94.80;;;;;;5017955;28;20446;-75
2022/04/06 06:47:29;;;;;;;4.72;2.15;;;17.30;94.70;;;;;;5051750;28;20126;-78
2022/04/06 06:49:56;;;;;;;5.40;1.70;;;17.30;94.40;;;;;;5034547;28;20067;-75
2022/04/06 06:52:24;;;;;;;2.80;2.08;;;17.40;94.50;;;;;;5033402;28;20044;-75
2022/04/06 06:54:52;;;;;;;5.65;2.50;;;17.50;94.30;;;;;;5051841;28;20048;-75
2022/04/06 06:57:20;;;;;;;3.40;2.00;;;17.60;94.10;;;;;;5033981;28;20542;-76
2022/04/06 06:59:47;;;;;;;2.88;1.95;;;17.40;94.10;;;;;;5050237;28;20134;-76
2022/04/06 07:02:15;;;;;;;3.83;1.73;;;17.50;94.10;;;;;;5051310;28;20063;-75
2022/04/06 07:04:42;;;;;;;5.43;2.17;;;17.50;94.10;;;;;;5050000;28;20769;-76
2022/04/06 07:07:10;;;;;;;3.05;1.50;;;17.50;94.10;;;;;;5034069;28;20053;-75
2022/04/06 07:09:39;;;;;;;2.33;1.60;;;17.40;93.90;;;;;;5050181;28;20073;-75
2022/04/06 07:12:07;;;;;;;3.75;1.80;;;17.50;94.00;;;;;;5051271;28;20470;-75
2022/04/06 07:14:35;;;;;;;6.90;1.98;;;17.50;93.90;;;;;;5050087;28;20049;-76
2022/04/06 07:17:03;;;;;;;2.58;1.35;;;17.60;93.80;;;;;;5050159;28;20149;-75
2022/04/06 07:19:30;;;;;;;2.85;1.80;;;17.70;93.50;;;;;;5033611;28;20036;-76
2022/04/06 07:21:58;;;;;;;2.90;2.05;;;17.70;93.60;;;;;;5049945;28;20609;-76
2022/04/06 07:24:26;;;;;;;3.03;1.70;;;17.90;93.80;;;;;;5033912;28;20071;-76
2022/04/06 07:26:56;;;;;;;3.33;1.52;;;18.00;93.60;;;;;;5050245;28;20057;-75
2022/04/06 07:29:23;;;;;;;2.80;1.80;;;18.00;93.50;;;;;;5049867;28;20106;-75
2022/04/06 07:31:53;;;;;;;2.03;1.50;;;18.10;93.10;;;;;;5033583;28;20045;-76
2022/04/06 07:34:20;;;;;;;5.38;1.75;;;18.20;92.70;;;;;;5016699;28;20037;-75
2022/04/06 07:36:48;;;;;;;2.85;1.65;;;18.30;92.40;;;;;;5033195;28;20060;-75
2022/04/06 07:39:15;;;;;;;2.08;1.23;;;18.40;92.10;;;;;;5049844;28;20045;-74
2022/04/06 07:41:43;;;;;;;3.63;1.75;;;18.40;92.20;;;;;;5033307;28;20053;-75
2022/04/06 07:44:11;;;;;;;2.30;1.30;;;18.40;91.60;;;;;;5049915;28;20037;-74
2022/04/06 07:46:38;;;;;;;2.50;1.48;;;18.40;91.50;;;;;;5033290;28;20092;-75
2022/04/06 07:49:07;;;;;;;7.10;2.20;;;18.60;91.60;;;;;;5049642;28;20122;-77
2022/04/06 07:51:36;;;;;;;2.15;1.52;;;18.70;91.60;;;;;;5049648;28;20140;-75
2022/04/06 07:54:04;;;;;;;3.15;1.60;;;18.90;91.30;;;;;;5033119;28;20110;-75
2022/04/06 07:56:31;;;;;;;1.98;1.63;;;18.90;90.90;;;;;;5049240;28;20040;-76
2022/04/06 07:58:59;;;;;;;3.20;1.40;;;18.80;90.70;;;;;;5048117;28;20100;-76
2022/04/06 08:01:29;;;;;;;2.20;1.48;;;18.90;90.60;;;;;;5032690;28;20080;-75
2022/04/06 08:03:56;;;;;;;2.33;1.27;;;18.90;90.20;;;;;;5032512;28;20076;-76
2022/04/06 08:06:24;;;;;;;3.95;1.63;;;19.00;90.60;;;;;;5049102;28;20076;-74
2022/04/06 08:08:53;;;;;;;2.65;1.50;;;19.10;90.90;;;;;;5017024;28;20807;-75
2022/04/06 08:11:20;;;;;;;1.83;1.30;;;19.30;90.50;;;;;;5032964;28;20055;-74
2022/04/06 08:13:48;;;;;;;2.72;1.40;;;19.50;90.20;;;;;;5032779;28;20572;-75
2022/04/06 08:16:17;;;;;;;4.07;1.88;;;19.50;90.30;;;;;;5032837;28;20080;-75
2022/04/06 08:18:45;;;;;;;2.83;1.50;;;19.70;90.20;;;;;;5049298;28;20094;-74
2022/04/06 08:21:12;;;;;;;6.35;1.88;;;19.80;90.40;;;;;;5050422;28;20091;-75
2022/04/06 08:23:40;;;;;;;2.90;1.70;;;19.70;90.30;;;;;;5050025;28;20372;-74
2022/04/06 08:26:07;;;;;;;2.45;2.10;;;19.70;90.00;;;;;;5048929;28;20060;-74
2022/04/06 08:28:36;;;;;;;2.97;1.40;;;19.60;89.20;;;;;;5048797;28;20049;-74
2022/04/06 08:31:05;;;;;;;3.65;1.85;;;19.50;89.50;;;;;;5050343;28;20724;-75
2022/04/06 08:33:32;;;;;;;3.45;1.80;;;19.50;90.10;;;;;;5049260;28;20041;-76
2022/04/06 08:36:03;;;;;;;3.15;1.45;;;19.50;90.30;;;;;;5048946;28;20053;-75
2022/04/06 08:38:30;;;;;;;4.38;1.63;;;19.60;90.30;;;;;;5048985;28;20059;-74
2022/04/06 08:41:01;;;;;;;3.60;2.20;;;19.80;90.00;;;;;;5032881;28;20574;-74
2022/04/06 08:43:28;;;;;;;3.63;1.98;;;19.90;89.40;;;;;;5050300;28;20041;-75
2022/04/06 08:45:56;;;;;;;4.88;1.80;;;20.00;89.10;;;;;;5048737;28;20053;-71
2022/04/06 08:48:31;;;;;;;2.65;1.65;;;19.90;89.00;;;;;;5032334;28;20490;-73
2022/04/06 08:51:00;;;;;;;4.03;2.00;;;20.00;88.40;;;;;;5031261;28;20399;-71
2022/04/06 08:53:27;;;;;;;3.53;2.13;;;20.10;88.30;;;;;;5049038;28;20379;-72
2022/04/06 08:55:55;;;;;;;4.88;1.83;;;20.00;88.40;;;;;;5048994;28;20049;-72
2022/04/06 08:58:23;;;;;;;3.28;1.60;;;20.00;88.90;;;;;;5017098;28;20138;-71
2022/04/06 09:00:50;;;;;;;3.67;1.73;;;20.00;88.70;;;;;;5019537;28;20049;-73
2022/04/06 09:03:21;;;;;;;4.13;1.70;;;19.90;89.40;;;;;;5052741;28;20059;-73
2022/04/06 09:06:01;;;;;;;3.00;1.52;;;20.00;88.80;;;;;;5036079;28;20409;-72
2022/04/06 09:08:37;;;;;;;2.65;1.65;;;19.90;89.40;;;;;;5051463;28;20146;-74
2022/04/06 09:11:10;;;;;;;3.42;1.67;;;20.10;89.40;;;;;;5054298;28;20045;-71
2022/04/06 09:13:41;;;;;;;5.90;1.67;;;20.10;88.50;;;;;;5055863;28;20670;-71
2022/04/06 09:16:12;;;;;;;3.53;1.30;;;20.10;87.80;;;;;;5055569;28;20119;-71
2022/04/06 09:18:45;;;;;;;2.63;1.40;;;20.20;87.10;;;;;;5073679;28;20048;-73
2022/04/06 09:21:16;;;;;;;2.42;1.30;;;20.20;87.10;;;;;;5073479;28;20568;-71
2022/04/06 09:23:48;;;;;;;2.83;1.73;;;20.10;87.10;;;;;;5039155;28;20033;-71
2022/04/06 09:26:20;;;;;;;1.52;1.10;;;20.00;87.50;;;;;;5039168;28;20028;-71
2022/04/06 09:28:49;;;;;;;2.38;1.30;;;20.00;88.00;;;;;;5055697;28;20048;-70
2022/04/06 09:31:19;;;;;;;5.40;1.88;;;20.10;87.30;;;;;;5055961;28;20171;-71
2022/04/06 09:34:02;;;;;;;3.35;2.47;;;20.20;87.30;;;;;;5055617;28;20037;-71
2022/04/06 09:36:32;;;;;;;2.42;1.65;;;20.00;87.20;;;;;;5039403;28;20487;-73
2022/04/06 09:38:59;;;;;;;3.53;1.50;;;20.00;87.60;;;;;;5038910;28;20082;-71
2022/04/06 09:41:27;;;;;;;3.10;1.33;;;19.70;87.20;;;;;;5055554;28;20102;-70
2022/04/06 09:44:06;;;;;;;2.65;1.60;;;19.60;86.70;;;;;;5022279;28;20045;-71
2022/04/06 09:49:20;;;;;;;4.07;1.63;;;19.80;87.30;;;;;;5054673;28;20451;-72
2022/04/06 09:51:50;;;;;;;3.40;1.88;;;20.00;86.80;;;;;;5038676;28;20052;-71
2022/04/06 09:54:19;;;;;;;3.40;1.73;;;20.10;87.00;;;;;;5038481;28;20036;-70
2022/04/06 09:56:47;;;;;;;3.38;1.30;;;20.30;86.40;;;;;;5038600;28;20041;-72
2022/04/06 09:59:15;;;;;;;2.80;1.48;;;20.40;86.20;;;;;;5038186;28;20053;-70
2022/04/06 10:01:49;;;;;;;4.68;1.50;;;20.50;85.90;;;;;;5088981;28;20124;-71
2022/04/06 10:04:24;;;;;;;5.18;1.35;;;20.60;85.00;;;;;;5093020;28;20094;-71
2022/04/06 10:06:52;;;;;;;3.47;1.75;;;20.50;84.10;;;;;;5075161;28;20103;-70
2022/04/06 10:09:20;;;;;;;2.50;1.45;;;20.60;84.70;;;;;;5074792;28;20036;-71
2022/04/06 10:11:51;;;;;;;2.63;1.30;;;20.70;84.20;;;;;;5057683;28;20153;-71
2022/04/06 10:14:19;;;;;;;2.30;1.10;;;20.90;84.70;;;;;;5092350;28;20047;-70
2022/04/06 10:16:48;;;;;;;2.45;1.38;;;20.90;84.30;;;;;;5057981;28;20044;-71
2022/04/06 10:19:21;;;;;;;8.43;1.60;;;20.80;83.00;;;;;;5074570;28;20077;-71
2022/04/06 10:21:55;;;;;;;2.70;1.52;;;20.50;82.60;;;;;;5073585;28;20048;-71
2022/04/06 10:24:33;;;;;;;3.15;1.90;;;20.30;82.80;;;;;;5040964;28;20135;-71
2022/04/06 10:27:06;;;;;;;2.33;1.20;;;20.30;83.20;;;;;;5092623;28;20048;-70
2022/04/06 10:30:06;;;;;;;3.60;1.60;;;20.30;83.70;;;;;;5041606;28;20086;-70
2022/04/06 10:32:38;;;;;;;14.35;1.73;;;20.40;83.50;;;;;;5057227;28;20142;-72
2022/04/06 10:35:21;;;;;;;4.50;1.27;;;20.30;81.90;;;;;;5074507;28;20056;-71
2022/04/06 10:37:56;;;;;;;3.40;1.45;;;20.20;80.50;;;;;;5057416;28;20048;-71
2022/04/06 10:40:25;;;;;;;2.60;1.60;;;19.90;80.90;;;;;;5057534;28;20075;-73
2022/04/06 10:42:52;;;;;;;4.38;1.58;;;19.60;82.30;;;;;;5074144;28;20040;-71
2022/04/06 10:45:29;;;;;;;3.33;1.77;;;19.70;82.50;;;;;;5057391;28;20138;-70
2022/04/06 10:48:16;;;;;;;3.10;1.63;;;19.60;83.10;;;;;;5071488;28;20066;-72
2022/04/06 10:50:45;;;;;;;2.20;1.27;;;19.50;83.50;;;;;;5040805;28;20502;-71
2022/04/06 10:53:22;;;;;;;2.78;1.70;;;19.70;83.90;;;;;;5057396;28;20504;-70
2022/04/06 10:56:11;;;;;;;3.35;1.40;;;19.50;79.80;;;;;;5057587;28;20044;-72
2022/04/06 10:58:57;;;;;;;3.05;1.30;;;19.50;78.00;;;;;;5056754;28;20056;-70
2022/04/06 11:01:33;;;;;;;3.03;1.48;;;19.40;80.50;;;;;;5073774;28;20055;-69
2022/04/06 11:04:15;;;;;;;;;;;19.50;80.20;;;;;;5058009;28;20402;-71
2022/04/06 11:06:53;;;;;;;2.67;1.33;;;19.40;78.30;;;;;;5073788;28;19920;-69
2022/04/06 11:12:22;;;;;;;3.88;1.80;;;19.20;80.70;;;;;;5072992;28;20086;-72
2022/04/06 11:15:12;;;;;;;2.40;1.55;;;19.10;79.80;;;;;;5056769;28;20541;-73
2022/04/06 11:17:45;;;;;;;2.53;1.10;;;19.20;79.10;;;;;;5073503;28;20055;-72
2022/04/06 11:20:14;;;;;;;2.03;1.50;;;19.20;78.10;;;;;;5057605;28;20071;-73
2022/04/06 11:22:55;;;;;;;2.35;1.42;;;19.20;78.50;;;;;;5072846;28;20123;-72
2022/04/06 11:25:28;;;;;;;4.18;2.42;;;19.20;80.00;;;;;;5091486;28;20133;-73
2022/04/06 11:28:09;;;;;;;2.80;1.65;;;19.30;80.00;;;;;;5073404;28;20052;-72
2022/04/06 11:30:43;;;;;;;1.63;1.30;;;19.30;80.00;;;;;;5091106;28;20067;-72
2022/04/06 11:33:11;;;;;;;2.65;1.55;;;19.30;80.80;;;;;;5073497;28;20048;-73
2022/04/06 11:35:40;;;;;;;2.88;1.75;;;19.10;79.90;;;;;;5056927;28;20113;-72
2022/04/06 11:38:08;;;;;;;3.35;1.52;;;19.10;80.70;;;;;;5040140;28;20130;-74
2022/04/06 11:40:42;;;;;;;2.50;1.15;;;19.20;81.20;;;;;;5039854;28;20513;-71
2022/04/06 11:43:10;;;;;;;3.83;1.77;;;19.30;80.60;;;;;;5050279;28;20048;-73
2022/04/06 11:45:44;;;;;;;6.18;2.10;;;19.30;80.70;;;;;;5073750;28;20059;-72
2022/04/06 11:48:12;;;;;;;2.22;1.42;;;19.40;81.30;;;;;;5058831;28;20095;-73
2022/04/06 11:50:41;;;;;;;2.22;1.42;;;19.40;81.00;;;;;;5088350;28;20051;-73
2022/04/06 11:53:15;;;;;;;2.00;1.13;;;19.40;80.70;;;;;;5063745;28;20072;-72
2022/04/06 11:55:47;;;;;;;3.92;1.50;;;19.50;80.10;;;;;;5070715;28;20147;-73
2022/04/06 11:58:51;;;;;;;1.88;1.10;;;19.60;80.50;;;;;;5038715;28;20057;-73
2022/04/06 12:01:26;;;;;;;2.42;1.58;;;19.60;81.40;;;;;;5025240;28;20519;-72
2022/04/06 12:03:58;;;;;;;3.03;1.48;;;19.60;78.90;;;;;;5072789;28;20135;-72
2022/04/06 12:06:36;;;;;;;2.65;1.40;;;19.70;79.80;;;;;;5038610;28;20142;-73
2022/04/06 12:09:06;;;;;;;3.90;1.65;;;19.60;79.80;;;;;;5046885;28;20048;-73
2022/04/06 12:11:35;;;;;;;2.97;1.30;;;19.50;78.70;;;;;;5020170;28;20052;-74
2022/04/06 12:14:04;;;;;;;2.40;1.30;;;19.50;78.60;;;;;;5047446;28;20040;-72
2022/04/06 12:16:32;;;;;;;2.40;1.40;;;19.70;79.00;;;;;;5070411;28;20053;-72
2022/04/06 12:19:00;;;;;;;1.75;1.15;;;19.90;79.50;;;;;;5031168;28;20048;-72
2022/04/06 12:21:28;;;;;;;3.33;1.30;;;19.90;79.60;;;;;;5052592;28;20045;-73
2022/04/06 12:23:56;;;;;;;2.95;1.40;;;20.00;79.60;;;;;;5055852;28;20060;-72
2022/04/06 12:26:25;;;;;;;3.40;1.20;;;20.00;78.80;;;;;;5055618;28;20490;-72
2022/04/06 12:29:00;;;;;;;3.67;1.52;;;19.90;78.50;;;;;;5055199;28;20498;-72
2022/04/06 12:31:38;;;;;;;2.75;1.65;;;19.90;79.80;;;;;;5071803;28;20051;-72
2022/04/06 12:34:08;;;;;;;3.05;1.77;;;19.70;82.60;;;;;;5052282;28;20075;-72
2022/04/06 12:36:36;;;;;;;4.88;2.25;;;19.30;90.50;;;;;;5056463;28;20044;-71
2022/04/06 12:39:13;;;;;;;6.60;1.65;;;19.20;91.00;;;;;;5038705;28;20406;-72
2022/04/06 12:42:05;;;;;;;4.18;1.75;;;19.30;90.70;;;;;;5067745;28;20142;-74
2022/04/06 12:44:34;;;;;;;4.80;1.42;;;19.30;91.20;;;;;;5052258;28;20456;-72
2022/04/06 12:47:03;;;;;;;5.18;1.80;;;19.20;91.10;;;;;;5039931;28;20066;-72
2022/04/06 12:49:36;;;;;;;2.25;1.60;;;19.20;91.10;;;;;;5044999;28;20064;-71
2022/04/06 12:52:22;;;;;;;4.63;1.63;;;18.90;91.10;;;;;;5039929;28;20040;-72
2022/04/06 12:55:01;;;;;;;3.95;1.70;;;18.60;91.80;;;;;;5039491;28;20474;-71
2022/04/06 12:57:37;;;;;;;2.50;1.45;;;18.60;91.90;;;;;;5073771;28;20045;-72
2022/04/06 13:00:10;;;;;;;3.97;1.48;;;18.60;92.10;;;;;;5039231;28;20088;-73
2022/04/06 13:02:46;;;;;;;6.60;1.58;;;18.60;92.50;;;;;;5039554;28;20053;-72
2022/04/06 13:05:16;;;;;;;5.05;1.50;;;18.60;92.80;;;;;;5039880;28;20056;-71
2022/04/06 13:07:46;;;;;;;5.25;2.13;;;18.60;93.10;;;;;;5072836;28;20052;-73